Time;durP1;ratioP1;P1;durP2;ratioP2;P2;SDS_P1;SDS_P2;PMS_P1;PMS_P2;Temp;Humidity;BMP_temperature;BMP_pressure;BME280_temperature;BME280_humidity;BME280_pressure;Samples;Min_cycle;Max_cycle;Signal;HPM_P1;HPM_P2
2021/11/21 00:00:17;;;;;;;38.40;18.58;;;8.20;99.90;;;;;;5057344;28;20606;-64
2021/11/21 00:02:45;;;;;;;43.50;20.55;;;10.00;99.90;;;;;;5060683;28;20032;-64
2021/11/21 00:05:12;;;;;;;39.22;19.65;;;10.10;99.90;;;;;;5058428;28;20027;-65
2021/11/21 00:07:38;;;;;;;40.67;18.95;;;10.00;99.90;;;;;;5056512;28;20032;-64
2021/11/21 00:10:04;;;;;;;37.55;18.60;;;10.00;99.90;;;;;;5058369;28;20389;-65
2021/11/21 00:12:29;;;;;;;39.40;19.00;;;10.00;99.90;;;;;;5057248;28;20880;-65
2021/11/21 00:14:55;;;;;;;43.42;20.33;;;10.00;99.90;;;;;;5056939;28;20438;-65
2021/11/21 00:17:20;;;;;;;39.65;19.02;;;10.00;99.90;;;;;;5056402;28;20055;-66
2021/11/21 00:19:46;;;;;;;42.50;19.00;;;10.00;99.90;;;;;;5057264;28;20040;-66
2021/11/21 00:22:13;;;;;;;37.95;18.80;;;10.00;99.90;;;;;;5056179;28;20098;-65
2021/11/21 00:24:38;;;;;;;43.03;19.25;;;9.90;99.90;;;;;;5057380;28;20037;-65
2021/11/21 00:27:04;;;;;;;39.33;19.33;;;9.90;99.90;;;;;;5055319;28;20029;-64
2021/11/21 00:29:30;;;;;;;34.78;17.52;;;9.90;99.90;;;;;;5038500;28;20131;-64
2021/11/21 00:31:55;;;;;;;38.97;18.45;;;10.20;99.90;;;;;;5056973;28;20049;-64
2021/11/21 00:34:21;;;;;;;41.70;19.45;;;10.00;99.90;;;;;;5056376;28;20025;-64
2021/11/21 00:36:46;;;;;;;38.20;19.80;;;9.80;99.90;;;;;;5038190;28;20028;-65
2021/11/21 00:39:12;;;;;;;51.65;23.85;;;9.80;99.90;;;;;;5056605;28;20047;-64
2021/11/21 00:41:38;;;;;;;41.20;20.88;;;9.90;99.90;;;;;;5056146;28;20036;-66
2021/11/21 00:44:05;;;;;;;41.03;18.75;;;9.80;99.90;;;;;;5039924;28;20029;-64
2021/11/21 00:46:34;;;;;;;42.10;19.30;;;9.80;99.90;;;;;;5056650;28;20055;-64
2021/11/21 00:49:00;;;;;;;39.15;19.42;;;9.90;99.90;;;;;;5056461;28;20064;-64
2021/11/21 00:51:26;;;;;;;41.47;20.73;;;10.60;99.90;;;;;;5054442;28;20032;-64
2021/11/21 00:53:54;;;;;;;36.35;18.95;;;9.80;99.90;;;;;;5056746;28;20531;-64
2021/11/21 00:56:20;;;;;;;37.83;18.17;;;9.70;99.90;;;;;;5054622;28;20103;-65
2021/11/21 00:58:45;;;;;;;41.33;20.08;;;9.70;99.90;;;;;;5056174;28;20036;-64
2021/11/21 01:01:11;;;;;;;39.85;18.90;;;9.80;99.90;;;;;;5056689;28;20028;-64
2021/11/21 01:03:36;;;;;;;42.97;19.70;;;9.70;99.90;;;;;;5057041;28;20040;-65
2021/11/21 01:06:02;;;;;;;43.83;20.42;;;9.70;99.90;;;;;;5057055;28;20029;-64
2021/11/21 01:08:28;;;;;;;39.13;19.85;;;9.70;99.90;;;;;;5054777;28;20060;-64
2021/11/21 01:10:54;;;;;;;45.08;19.33;;;10.30;99.90;;;;;;5054871;28;20040;-64
2021/11/21 01:13:20;;;;;;;38.20;18.08;;;9.80;99.90;;;;;;5046866;28;20036;-64
2021/11/21 01:15:45;;;;;;;45.00;18.95;;;9.70;99.90;;;;;;5024773;28;20033;-64
2021/11/21 01:18:11;;;;;;;36.63;18.50;;;9.70;99.90;;;;;;5055860;28;20467;-64
2021/11/21 01:20:37;;;;;;;33.08;17.65;;;9.70;99.90;;;;;;5056751;28;20446;-64
2021/11/21 01:23:02;;;;;;;34.63;17.55;;;9.70;99.90;;;;;;5056633;28;20043;-64
2021/11/21 01:25:28;;;;;;;35.75;18.67;;;9.70;99.90;;;;;;5060772;28;20119;-64
2021/11/21 01:27:53;;;;;;;37.63;18.05;;;9.70;99.90;;;;;;5059146;28;20033;-64
2021/11/21 01:30:19;;;;;;;34.65;17.73;;;9.70;99.90;;;;;;5060002;28;20066;-65
2021/11/21 01:32:44;;;;;;;38.03;19.00;;;9.70;99.90;;;;;;5041705;28;20139;-64
2021/11/21 01:35:10;;;;;;;36.00;17.70;;;9.70;99.90;;;;;;5060010;28;20508;-64
2021/11/21 01:37:35;;;;;;;35.80;16.73;;;9.70;99.90;;;;;;5058997;28;20127;-64
2021/11/21 01:40:01;;;;;;;37.17;18.23;;;9.70;99.90;;;;;;5060559;28;20020;-64
2021/11/21 01:42:27;;;;;;;37.45;16.75;;;9.70;99.90;;;;;;5059440;28;20953;-64
2021/11/21 01:44:52;;;;;;;32.63;16.35;;;9.70;99.90;;;;;;5060279;28;20107;-64
2021/11/21 01:47:18;;;;;;;37.30;17.85;;;9.70;99.90;;;;;;5059128;28;20037;-64
2021/11/21 01:49:43;;;;;;;34.78;17.13;;;9.60;99.90;;;;;;5059826;28;20031;-63
2021/11/21 01:52:09;;;;;;;33.47;17.02;;;9.70;99.90;;;;;;5060082;28;20051;-64
2021/11/21 01:54:35;;;;;;;40.20;17.60;;;9.60;99.90;;;;;;5060026;28;20063;-64
2021/11/21 01:57:00;;;;;;;34.83;17.33;;;9.70;99.90;;;;;;5059477;28;20055;-64
2021/11/21 01:59:26;;;;;;;37.08;18.35;;;9.70;99.90;;;;;;5041267;28;20024;-64
2021/11/21 02:01:51;;;;;;;39.40;19.20;;;9.70;99.90;;;;;;5059656;28;20025;-63
2021/11/21 02:04:17;;;;;;;37.33;18.05;;;9.80;99.90;;;;;;5041464;28;20661;-64
2021/11/21 02:06:42;;;;;;;38.75;18.30;;;9.70;99.90;;;;;;5059182;28;20108;-64
2021/11/21 02:09:08;;;;;;;43.33;20.42;;;9.70;99.90;;;;;;5058410;28;20420;-64
2021/11/21 02:11:34;;;;;;;41.53;19.85;;;9.70;99.90;;;;;;5059358;28;20068;-64
2021/11/21 02:13:59;;;;;;;42.17;19.38;;;9.70;99.90;;;;;;5059816;28;20446;-64
2021/11/21 02:16:25;;;;;;;38.40;19.30;;;9.70;99.90;;;;;;5058981;28;20587;-64
2021/11/21 02:18:50;;;;;;;42.78;20.33;;;9.70;99.90;;;;;;5059113;28;20029;-64
2021/11/21 02:21:16;;;;;;;47.25;20.38;;;9.60;99.90;;;;;;5058952;28;20070;-64
2021/11/21 02:23:42;;;;;;;39.67;19.00;;;9.60;99.90;;;;;;5059565;28;20031;-64
2021/11/21 02:26:07;;;;;;;45.03;20.70;;;9.80;99.90;;;;;;5060390;28;20028;-64
2021/11/21 02:28:33;;;;;;;47.00;20.50;;;9.80;99.90;;;;;;5058114;28;20029;-64
2021/11/21 02:30:59;;;;;;;44.80;21.30;;;9.60;99.90;;;;;;5060171;28;20024;-64
2021/11/21 02:33:24;;;;;;;45.85;19.90;;;9.60;99.90;;;;;;5060007;28;20036;-64
2021/11/21 02:35:50;;;;;;;45.40;20.33;;;10.70;99.90;;;;;;5058279;28;20032;-64
2021/11/21 02:38:15;;;;;;;45.75;20.92;;;9.60;99.90;;;;;;5058883;28;20070;-64
2021/11/21 02:40:41;;;;;;;41.55;20.05;;;9.50;99.90;;;;;;5042007;28;20121;-64
2021/11/21 02:43:07;;;;;;;43.78;21.23;;;9.60;99.90;;;;;;5058755;28;20035;-63
2021/11/21 02:45:32;;;;;;;43.88;20.80;;;9.60;99.90;;;;;;5059557;28;20032;-64
2021/11/21 02:47:58;;;;;;;43.67;21.05;;;9.40;99.90;;;;;;5058484;28;20036;-64
2021/11/21 02:50:23;;;;;;;42.35;20.05;;;9.50;99.90;;;;;;5058812;28;20039;-64
2021/11/21 02:52:49;;;;;;;44.03;20.45;;;9.50;99.90;;;;;;5059650;28;20039;-64
2021/11/21 02:55:15;;;;;;;49.95;21.17;;;9.50;99.90;;;;;;5058850;28;20021;-64
2021/11/21 02:57:40;;;;;;;55.83;24.27;;;9.50;99.90;;;;;;5057557;28;20032;-64
2021/11/21 03:00:06;;;;;;;47.00;20.63;;;9.40;99.90;;;;;;5059208;28;20028;-64
2021/11/21 03:02:32;;;;;;;44.95;20.40;;;9.50;99.90;;;;;;5058650;28;20028;-64
2021/11/21 03:04:57;;;;;;;49.55;20.70;;;9.50;99.90;;;;;;5058630;28;20037;-64
2021/11/21 03:07:23;;;;;;;43.20;19.48;;;9.40;99.90;;;;;;5058226;28;20029;-64
2021/11/21 03:09:48;;;;;;;48.85;21.65;;;9.40;99.90;;;;;;5058010;28;20037;-64
2021/11/21 03:12:14;;;;;;;41.50;20.20;;;9.40;99.90;;;;;;5059032;28;20040;-64
2021/11/21 03:14:39;;;;;;;44.50;20.95;;;9.50;99.90;;;;;;5050719;28;20032;-64
2021/11/21 03:17:05;;;;;;;51.35;21.65;;;9.40;99.90;;;;;;5056801;28;20025;-64
2021/11/21 03:19:31;;;;;;;48.03;21.20;;;9.40;99.90;;;;;;5055932;28;20043;-64
2021/11/21 03:21:56;;;;;;;51.22;19.90;;;9.40;99.90;;;;;;5056754;28;20048;-64
2021/11/21 03:24:22;;;;;;;43.83;21.23;;;9.40;99.90;;;;;;5056495;28;20036;-64
2021/11/21 03:26:47;;;;;;;41.47;19.33;;;9.40;99.90;;;;;;5039010;28;20075;-64
2021/11/21 03:29:13;;;;;;;40.88;19.65;;;9.30;99.90;;;;;;5057399;28;20064;-64
2021/11/21 03:31:39;;;;;;;39.67;19.25;;;9.40;99.90;;;;;;5057591;28;20040;-65
2021/11/21 03:34:14;;;;;;;;;;;;;;;;;;;;;
2021/11/21 03:36:44;;;;;;;47.88;20.17;;;9.30;99.90;;;;;;5028013;28;20523;-66
2021/11/21 03:39:09;;;;;;;44.20;18.85;;;9.30;99.90;;;;;;5057990;28;20032;-65
2021/11/21 03:41:35;;;;;;;41.03;19.48;;;9.40;99.90;;;;;;5056189;28;20031;-64
2021/11/21 03:44:00;;;;;;;44.25;19.33;;;9.30;99.90;;;;;;5040435;28;20020;-63
2021/11/21 03:46:26;;;;;;;45.45;19.33;;;9.30;99.90;;;;;;5040352;28;20037;-64
2021/11/21 03:48:52;;;;;;;40.05;19.08;;;9.30;99.90;;;;;;5057456;28;20041;-64
2021/11/21 03:51:17;;;;;;;39.70;19.42;;;9.30;99.90;;;;;;5057207;28;20127;-64
2021/11/21 03:53:43;;;;;;;42.80;20.10;;;9.30;99.90;;;;;;5056505;28;20040;-64
2021/11/21 03:56:08;;;;;;;43.70;19.17;;;9.30;99.90;;;;;;5057684;28;20143;-64
2021/11/21 03:58:34;;;;;;;43.50;18.85;;;9.30;99.90;;;;;;5057971;28;20481;-65
2021/11/21 04:00:59;;;;;;;41.10;19.17;;;9.30;99.90;;;;;;5058026;28;20035;-64
2021/11/21 04:03:25;;;;;;;41.75;19.73;;;9.20;99.90;;;;;;5058502;28;20064;-64
2021/11/21 04:05:51;;;;;;;46.17;19.55;;;9.30;99.90;;;;;;5058252;28;20058;-64
2021/11/21 04:08:17;;;;;;;40.38;17.85;;;9.20;99.90;;;;;;5057793;28;20473;-65
2021/11/21 04:10:42;;;;;;;41.95;19.58;;;9.20;99.90;;;;;;5057647;28;20032;-64
2021/11/21 04:13:08;;;;;;;44.05;19.23;;;9.20;99.90;;;;;;5056930;28;20035;-64
2021/11/21 04:15:34;;;;;;;39.67;18.52;;;9.10;99.90;;;;;;5059451;28;20199;-65
2021/11/21 04:17:59;;;;;;;42.80;18.65;;;9.20;99.90;;;;;;5058726;28;20039;-64
2021/11/21 04:20:25;;;;;;;42.05;19.02;;;9.20;99.90;;;;;;5059261;28;20025;-64
2021/11/21 04:22:50;;;;;;;42.42;19.17;;;9.20;99.90;;;;;;5059261;28;20570;-65
2021/11/21 04:25:16;;;;;;;43.17;17.92;;;9.20;99.90;;;;;;5057810;28;20032;-64
2021/11/21 04:27:41;;;;;;;38.13;17.98;;;9.20;99.90;;;;;;5058405;28;20127;-64
2021/11/21 04:30:07;;;;;;;39.22;17.58;;;9.20;99.90;;;;;;5057773;28;20131;-64
2021/11/21 04:32:33;;;;;;;42.10;18.75;;;9.20;99.90;;;;;;5057588;28;20649;-64
2021/11/21 04:34:58;;;;;;;36.75;17.95;;;9.20;99.90;;;;;;5023000;28;20090;-64
2021/11/21 04:37:24;;;;;;;37.08;16.80;;;9.20;99.90;;;;;;5056992;28;20037;-65
2021/11/21 04:39:49;;;;;;;39.80;17.52;;;9.20;99.90;;;;;;5057794;28;20036;-64
2021/11/21 04:42:15;;;;;;;42.53;18.38;;;9.20;99.90;;;;;;5057393;28;20077;-64
2021/11/21 04:44:42;;;;;;;42.38;19.08;;;9.20;99.90;;;;;;5056638;28;20036;-64
2021/11/21 04:47:08;;;;;;;36.35;16.85;;;9.10;99.90;;;;;;5057482;28;20120;-64
2021/11/21 04:49:34;;;;;;;40.20;17.38;;;9.10;99.90;;;;;;5057352;28;20127;-64
2021/11/21 04:51:59;;;;;;;45.17;17.73;;;9.20;99.90;;;;;;5057564;28;20044;-64
2021/11/21 04:54:26;;;;;;;37.25;17.58;;;9.10;99.90;;;;;;5057596;28;20037;-64
2021/11/21 04:56:51;;;;;;;38.67;16.75;;;9.10;99.90;;;;;;5058013;28;20051;-64
2021/11/21 04:59:17;;;;;;;36.08;16.75;;;9.10;99.90;;;;;;5059503;28;20037;-64
2021/11/21 05:01:43;;;;;;;39.55;18.05;;;9.10;99.90;;;;;;5043761;28;20056;-64
2021/11/21 05:04:08;;;;;;;40.78;18.17;;;9.10;99.90;;;;;;5061835;28;20035;-64
2021/11/21 05:06:34;;;;;;;43.50;18.40;;;9.10;99.90;;;;;;5061635;28;20031;-64
2021/11/21 05:09:01;;;;;;;39.35;16.73;;;9.10;99.90;;;;;;5060704;28;20040;-64
2021/11/21 05:11:26;;;;;;;36.78;16.65;;;9.10;99.90;;;;;;5061588;28;20671;-64
2021/11/21 05:13:52;;;;;;;38.55;17.10;;;9.10;99.90;;;;;;5060844;28;20028;-64
2021/11/21 05:16:17;;;;;;;45.28;18.55;;;9.10;99.90;;;;;;5060687;28;20032;-64
2021/11/21 05:18:43;;;;;;;38.33;16.13;;;9.10;99.90;;;;;;5042679;28;20037;-64
2021/11/21 05:21:08;;;;;;;32.67;15.23;;;9.10;99.90;;;;;;5042916;28;20032;-64
2021/11/21 05:23:34;;;;;;;36.15;16.70;;;9.10;99.90;;;;;;5061556;28;20487;-64
2021/11/21 05:26:00;;;;;;;37.67;16.30;;;9.10;99.90;;;;;;5060749;28;20039;-64
2021/11/21 05:28:25;;;;;;;34.85;14.55;;;9.00;99.90;;;;;;5060719;28;20566;-64
2021/11/21 05:30:51;;;;;;;35.10;15.60;;;9.00;99.90;;;;;;5061139;28;20173;-65
2021/11/21 05:33:16;;;;;;;38.25;15.68;;;9.00;99.90;;;;;;5060438;28;20063;-64
2021/11/21 05:35:42;;;;;;;34.95;15.35;;;9.00;99.90;;;;;;5060668;28;20809;-64
2021/11/21 05:38:08;;;;;;;42.08;16.00;;;9.00;99.90;;;;;;5059756;28;20039;-64
2021/11/21 05:40:33;;;;;;;35.97;14.68;;;9.20;99.90;;;;;;5061618;28;20036;-64
2021/11/21 05:42:59;;;;;;;34.65;15.63;;;9.00;99.90;;;;;;5061327;28;20086;-64
2021/11/21 05:45:24;;;;;;;38.63;16.30;;;9.00;99.90;;;;;;5060359;28;20029;-64
2021/11/21 05:47:50;;;;;;;36.38;16.20;;;9.00;99.90;;;;;;5060817;28;20028;-64
2021/11/21 05:50:16;;;;;;;36.33;15.90;;;8.90;99.90;;;;;;5061069;28;20040;-64
2021/11/21 05:52:42;;;;;;;35.30;15.57;;;;;;;;;;5060344;28;20087;-64
2021/11/21 05:55:07;;;;;;;34.25;15.45;;;8.70;99.90;;;;;;5061023;28;20074;-64
2021/11/21 05:57:33;;;;;;;35.60;15.18;;;;;;;;;;5059335;28;20032;-64
2021/11/21 05:59:59;;;;;;;30.75;12.95;;;;;;;;;;5042502;28;20075;-64
2021/11/21 06:02:26;;;;;;;33.88;14.93;;;;;;;;;;5060615;28;20052;-64
2021/11/21 06:04:52;;;;;;;37.35;15.65;;;;;;;;;;5060385;28;20028;-64
2021/11/21 06:07:18;;;;;;;40.90;15.77;;;;;;;;;;5060025;28;20059;-64
2021/11/21 06:09:44;;;;;;;35.30;15.55;;;;;;;;;;5059042;28;20693;-64
2021/11/21 06:12:10;;;;;;;42.88;14.70;;;;;;;;;;5059472;28;20032;-64
2021/11/21 06:14:35;;;;;;;33.50;14.55;;;9.10;99.90;;;;;;5059441;28;20036;-66
2021/11/21 06:17:01;;;;;;;38.50;15.20;;;;;;;;;;5059474;28;20040;-64
2021/11/21 06:19:27;;;;;;;33.90;15.18;;;8.80;99.90;;;;;;5059769;28;20119;-65
2021/11/21 06:21:52;;;;;;;33.90;14.98;;;9.10;99.90;;;;;;5060379;28;20579;-64
2021/11/21 06:24:18;;;;;;;35.10;14.32;;;8.80;99.90;;;;;;5060656;28;20043;-64
2021/11/21 06:26:43;;;;;;;35.72;15.82;;;8.90;99.90;;;;;;5060384;28;20036;-64
2021/11/21 06:29:09;;;;;;;34.60;13.60;;;8.90;99.90;;;;;;5042143;28;20043;-64
2021/11/21 06:31:34;;;;;;;33.38;14.75;;;8.90;99.90;;;;;;5060589;28;20028;-64
2021/11/21 06:34:00;;;;;;;32.35;14.02;;;8.80;99.90;;;;;;5059750;28;20697;-64
2021/11/21 06:36:25;;;;;;;29.50;13.55;;;8.80;99.90;;;;;;5060233;28;20396;-64
2021/11/21 06:38:51;;;;;;;31.60;14.15;;;8.90;99.90;;;;;;5060026;28;20863;-64
2021/11/21 06:41:17;;;;;;;30.73;13.85;;;8.80;99.90;;;;;;5060253;28;20114;-64
2021/11/21 06:43:42;;;;;;;30.15;13.65;;;8.80;99.90;;;;;;5060443;28;20016;-64
2021/11/21 06:46:09;;;;;;;33.65;14.13;;;8.80;99.90;;;;;;5059847;28;20068;-64
2021/11/21 06:48:36;;;;;;;32.20;13.50;;;8.80;99.90;;;;;;5059964;28;20530;-64
2021/11/21 06:51:01;;;;;;;30.48;14.40;;;8.80;99.90;;;;;;5059609;28;20127;-65
2021/11/21 06:53:27;;;;;;;33.15;13.25;;;8.80;99.90;;;;;;5059692;28;20116;-64
2021/11/21 06:55:52;;;;;;;31.85;14.48;;;8.80;99.90;;;;;;5059701;28;20553;-65
2021/11/21 06:58:18;;;;;;;30.23;14.27;;;8.90;99.90;;;;;;5059733;28;20549;-65
2021/11/21 07:00:43;;;;;;;35.53;15.07;;;8.80;99.90;;;;;;5059721;28;20128;-64
2021/11/21 07:03:09;;;;;;;28.05;12.98;;;8.80;99.90;;;;;;5060199;28;20216;-65
2021/11/21 07:05:35;;;;;;;33.58;14.55;;;8.80;99.90;;;;;;5059349;28;20040;-64
2021/11/21 07:08:00;;;;;;;33.88;13.52;;;8.80;99.90;;;;;;5059516;28;20032;-64
2021/11/21 07:10:26;;;;;;;31.05;13.07;;;8.80;99.90;;;;;;5059468;28;20894;-64
2021/11/21 07:12:52;;;;;;;28.33;12.95;;;8.80;99.90;;;;;;5059669;28;20116;-64
2021/11/21 07:15:17;;;;;;;32.13;13.60;;;8.80;99.90;;;;;;5059876;28;20044;-64
2021/11/21 07:17:43;;;;;;;34.45;16.23;;;8.80;99.90;;;;;;5059057;28;20052;-64
2021/11/21 07:20:15;;;;;;;29.35;13.52;;;8.80;99.90;;;;;;5058205;28;20028;-65
2021/11/21 07:22:40;;;;;;;32.17;14.43;;;8.90;99.90;;;;;;5059421;28;20036;-64
2021/11/21 07:25:06;;;;;;;29.45;12.88;;;8.90;99.90;;;;;;5058960;28;20071;-64
2021/11/21 07:27:31;;;;;;;32.40;15.18;;;8.80;99.90;;;;;;5059393;28;20043;-64
2021/11/21 07:29:58;;;;;;;26.83;12.90;;;8.90;99.90;;;;;;5059389;28;20086;-64
2021/11/21 07:32:24;;;;;;;38.05;17.75;;;8.90;99.90;;;;;;5059426;28;20028;-64
2021/11/21 07:34:49;;;;;;;32.55;13.77;;;8.90;99.90;;;;;;5059268;28;20888;-64
2021/11/21 07:37:15;;;;;;;32.10;14.63;;;8.90;99.90;;;;;;5058642;28;20036;-64
2021/11/21 07:39:40;;;;;;;30.92;14.00;;;9.00;99.90;;;;;;5059585;28;20039;-64
2021/11/21 07:42:06;;;;;;;29.23;13.32;;;9.00;99.90;;;;;;5059278;28;20484;-64
2021/11/21 07:44:32;;;;;;;27.02;13.20;;;9.00;99.90;;;;;;5059320;28;20028;-64
2021/11/21 07:46:58;;;;;;;30.17;13.07;;;8.90;99.90;;;;;;5059036;28;20066;-64
2021/11/21 07:49:23;;;;;;;29.63;13.43;;;8.90;99.90;;;;;;5058777;28;20036;-64
2021/11/21 07:51:49;;;;;;;31.13;13.93;;;9.00;99.90;;;;;;5059311;28;20036;-64
2021/11/21 07:54:14;;;;;;;31.95;12.95;;;9.00;99.90;;;;;;5058936;28;20495;-65
2021/11/21 07:56:40;;;;;;;32.00;12.77;;;9.00;99.90;;;;;;5058510;28;20032;-64
2021/11/21 07:59:06;;;;;;;27.38;12.25;;;9.00;99.90;;;;;;5058807;28;20028;-64
2021/11/21 08:01:31;;;;;;;28.95;13.45;;;9.00;99.90;;;;;;5058376;28;20082;-64
2021/11/21 08:03:57;;;;;;;28.85;12.95;;;9.00;99.90;;;;;;5058923;28;20483;-64
2021/11/21 08:06:23;;;;;;;32.15;13.57;;;9.10;99.90;;;;;;5057223;28;20107;-63
2021/11/21 08:08:48;;;;;;;30.23;12.95;;;9.10;99.90;;;;;;5049944;28;20040;-67
2021/11/21 08:11:14;;;;;;;32.17;13.30;;;9.00;99.90;;;;;;5059195;28;20496;-67
2021/11/21 08:13:40;;;;;;;31.42;14.43;;;9.00;99.90;;;;;;5040899;28;20551;-67
2021/11/21 08:16:06;;;;;;;33.58;14.65;;;8.90;99.90;;;;;;5058902;28;20107;-67
2021/11/21 08:18:32;;;;;;;29.55;12.93;;;8.80;99.90;;;;;;5040588;28;20105;-63
2021/11/21 08:20:57;;;;;;;32.45;13.02;;;8.70;99.90;;;;;;5059127;28;20025;-64
2021/11/21 08:23:23;;;;;;;33.92;14.15;;;8.60;99.90;;;;;;5059616;28;20029;-64
2021/11/21 08:25:49;;;;;;;36.63;13.82;;;8.50;99.90;;;;;;5040008;28;20032;-63
2021/11/21 08:28:14;;;;;;;36.83;14.88;;;8.50;99.90;;;;;;5058927;28;20028;-63
2021/11/21 08:30:40;;;;;;;32.28;13.55;;;8.50;99.90;;;;;;5060137;28;20029;-64
2021/11/21 08:33:05;;;;;;;40.10;15.35;;;8.40;99.90;;;;;;5057612;28;20098;-64
2021/11/21 08:35:31;;;;;;;44.50;16.67;;;8.40;99.90;;;;;;5057546;28;20037;-64
2021/11/21 08:37:57;;;;;;;43.22;15.45;;;8.80;99.90;;;;;;5057399;28;20086;-64
2021/11/21 08:40:23;;;;;;;44.08;17.33;;;8.40;99.90;;;;;;5036689;28;20106;-63
2021/11/21 08:42:48;;;;;;;44.33;17.45;;;8.90;99.90;;;;;;5050720;28;20036;-64
2021/11/21 08:45:14;;;;;;;42.03;16.77;;;8.40;99.90;;;;;;5056162;28;20516;-64
2021/11/21 08:47:41;;;;;;;45.72;15.98;;;8.50;99.90;;;;;;5056147;28;20037;-64
2021/11/21 08:50:06;;;;;;;47.70;16.88;;;8.40;99.90;;;;;;5056465;28;20025;-64
2021/11/21 08:52:32;;;;;;;44.88;16.75;;;8.50;99.90;;;;;;5056010;28;20043;-64
2021/11/21 08:54:58;;;;;;;47.90;18.50;;;8.50;99.90;;;;;;5039679;28;20032;-63
2021/11/21 08:57:23;;;;;;;47.17;17.17;;;8.50;99.90;;;;;;5057271;28;20031;-64
2021/11/21 08:59:49;;;;;;;45.33;16.77;;;8.50;99.90;;;;;;5056935;28;20154;-63
2021/11/21 09:02:14;;;;;;;98.65;44.95;;;8.50;99.90;;;;;;5058480;28;20043;-64
2021/11/21 09:04:40;;;;;;;79.25;34.28;;;8.50;99.90;;;;;;5040492;28;20058;-64
2021/11/21 09:07:06;;;;;;;47.42;21.52;;;8.60;99.90;;;;;;5057907;28;20028;-64
2021/11/21 09:09:31;;;;;;;48.85;21.60;;;8.60;99.90;;;;;;5058449;28;20502;-64
2021/11/21 09:11:57;;;;;;;49.72;20.23;;;8.60;99.90;;;;;;5058169;28;20565;-64
2021/11/21 09:14:24;;;;;;;42.42;16.73;;;8.60;99.90;;;;;;5057847;28;20036;-65
2021/11/21 09:16:50;;;;;;;40.75;15.75;;;8.60;99.90;;;;;;5056606;28;20051;-64
2021/11/21 09:19:16;;;;;;;41.13;16.73;;;8.60;99.90;;;;;;5056858;28;20032;-63
2021/11/21 09:21:42;;;;;;;49.85;20.27;;;8.50;99.90;;;;;;5054592;28;20468;-64
2021/11/21 09:24:08;;;;;;;60.35;24.35;;;8.50;99.90;;;;;;5056266;28;20497;-65
2021/11/21 09:26:34;;;;;;;54.00;23.20;;;8.50;99.90;;;;;;5057448;28;20135;-64
2021/11/21 09:28:59;;;;;;;52.40;23.75;;;8.60;99.90;;;;;;5038413;28;20761;-64
2021/11/21 09:31:25;;;;;;;67.20;31.80;;;8.60;99.90;;;;;;5057181;28;20823;-64
2021/11/21 09:33:50;;;;;;;60.03;21.60;;;8.60;99.90;;;;;;5057751;28;20111;-64
2021/11/21 09:36:16;;;;;;;55.72;21.90;;;8.60;99.90;;;;;;5055142;28;20534;-64
2021/11/21 09:38:43;;;;;;;57.70;22.98;;;8.60;99.90;;;;;;5056510;28;20041;-64
2021/11/21 09:41:09;;;;;;;50.80;18.40;;;8.60;99.90;;;;;;5056666;28;20040;-64
2021/11/21 09:43:34;;;;;;;54.70;23.10;;;8.60;99.90;;;;;;5056929;28;20032;-64
2021/11/21 09:46:00;;;;;;;54.40;19.83;;;8.60;99.90;;;;;;5060246;28;20052;-64
2021/11/21 09:48:26;;;;;;;51.90;17.67;;;8.60;99.90;;;;;;5024997;28;20048;-64
2021/11/21 09:50:51;;;;;;;60.72;19.70;;;8.50;99.90;;;;;;5059831;28;20466;-64
2021/11/21 09:53:17;;;;;;;62.65;20.33;;;8.50;99.90;;;;;;5057958;28;20131;-64
2021/11/21 09:55:43;;;;;;;62.10;23.02;;;8.50;99.90;;;;;;5060042;28;20539;-64
2021/11/21 09:58:08;;;;;;;52.92;18.60;;;8.50;99.90;;;;;;5059347;28;20125;-64
2021/11/21 10:00:34;;;;;;;62.95;19.77;;;8.50;99.90;;;;;;5040098;28;20025;-64
2021/11/21 10:03:01;;;;;;;53.25;18.02;;;8.50;99.90;;;;;;5024818;28;20758;-64
2021/11/21 10:05:29;;;;;;;58.72;19.60;;;8.50;99.90;;;;;;5059520;28;20036;-65
2021/11/21 10:07:55;;;;;;;61.83;21.08;;;8.50;99.90;;;;;;5056010;28;20032;-65
2021/11/21 10:10:20;;;;;;;56.55;18.92;;;8.50;99.90;;;;;;5060364;28;20377;-65
2021/11/21 10:12:46;;;;;;;54.15;20.15;;;8.60;99.90;;;;;;5059058;28;20810;-65
2021/11/21 10:15:12;;;;;;;51.05;19.48;;;8.60;99.90;;;;;;5059723;28;20082;-65
2021/11/21 10:17:38;;;;;;;50.33;20.45;;;8.60;99.90;;;;;;5060049;28;20041;-65
2021/11/21 10:20:03;;;;;;;48.78;18.70;;;8.90;99.90;;;;;;5040642;28;20410;-64
2021/11/21 10:22:29;;;;;;;44.22;17.65;;;8.80;99.90;;;;;;5041676;28;20970;-64
2021/11/21 10:24:54;;;;;;;45.97;17.17;;;8.80;99.90;;;;;;5059075;28;20028;-64
2021/11/21 10:27:21;;;;;;;54.25;18.40;;;8.80;99.90;;;;;;5058400;28;20094;-64
2021/11/21 10:29:46;;;;;;;42.50;16.42;;;8.80;99.90;;;;;;5059246;28;20032;-64
2021/11/21 10:32:12;;;;;;;52.35;17.75;;;8.90;99.90;;;;;;5058926;28;20480;-64
2021/11/21 10:34:38;;;;;;;45.13;19.30;;;8.90;99.90;;;;;;5059333;28;20032;-64
2021/11/21 10:37:03;;;;;;;46.05;18.30;;;8.90;99.90;;;;;;5058731;28;20032;-64
2021/11/21 10:39:29;;;;;;;39.90;17.52;;;8.90;99.90;;;;;;5059317;28;20809;-65
2021/11/21 10:41:54;;;;;;;43.47;19.25;;;8.90;99.90;;;;;;5058939;28;20032;-65
2021/11/21 10:44:20;;;;;;;42.42;17.77;;;8.80;99.90;;;;;;5055356;28;20033;-64
2021/11/21 10:46:45;;;;;;;40.58;18.13;;;8.80;99.90;;;;;;5059082;28;20033;-65
2021/11/21 10:49:12;;;;;;;47.67;19.67;;;8.80;99.90;;;;;;5058900;28;20781;-64
2021/11/21 10:51:37;;;;;;;49.60;19.17;;;8.80;99.90;;;;;;5058020;28;20028;-65
2021/11/21 10:54:03;;;;;;;44.25;20.38;;;8.90;99.90;;;;;;5058976;28;20043;-64
2021/11/21 10:56:30;;;;;;;41.60;18.40;;;8.90;99.90;;;;;;5058554;28;20029;-72
2021/11/21 10:58:56;;;;;;;42.15;18.40;;;9.00;99.90;;;;;;5039616;28;20752;-72
2021/11/21 11:01:21;;;;;;;51.47;21.90;;;9.00;99.90;;;;;;5040545;28;20032;-64
2021/11/21 11:03:48;;;;;;;50.72;19.52;;;8.90;99.90;;;;;;5058104;28;20024;-64
2021/11/21 11:06:14;;;;;;;47.22;20.30;;;9.00;99.90;;;;;;5058548;28;20028;-64
2021/11/21 11:08:39;;;;;;;42.95;17.90;;;9.00;99.90;;;;;;5058235;28;20579;-64
2021/11/21 11:11:05;;;;;;;43.00;18.05;;;9.10;99.90;;;;;;5058174;28;20024;-64
2021/11/21 11:13:30;;;;;;;43.15;18.60;;;9.00;99.90;;;;;;5058031;28;20032;-64
2021/11/21 11:15:56;;;;;;;44.55;17.83;;;9.00;99.90;;;;;;5058003;28;20036;-64
2021/11/21 11:18:21;;;;;;;49.40;21.08;;;9.00;99.90;;;;;;5056247;28;20028;-65
2021/11/21 11:20:47;;;;;;;46.55;19.13;;;9.00;99.90;;;;;;5057097;28;20111;-64
2021/11/21 11:23:13;;;;;;;43.10;17.80;;;9.10;99.90;;;;;;5057578;28;20542;-65
2021/11/21 11:25:38;;;;;;;34.70;15.35;;;9.10;99.90;;;;;;5057371;28;20736;-64
2021/11/21 11:28:04;;;;;;;39.17;17.60;;;9.20;99.90;;;;;;5037969;28;20060;-65
2021/11/21 11:30:29;;;;;;;35.45;16.55;;;9.20;99.90;;;;;;5057309;28;20028;-64
2021/11/21 11:32:55;;;;;;;34.33;16.70;;;9.20;99.90;;;;;;5058138;28;20028;-64
2021/11/21 11:35:21;;;;;;;36.97;15.85;;;9.30;99.90;;;;;;5057189;28;20047;-65
2021/11/21 11:37:46;;;;;;;34.92;15.70;;;9.30;99.90;;;;;;5056959;28;20545;-64
2021/11/21 11:40:12;;;;;;;33.55;15.60;;;9.40;99.90;;;;;;5057030;28;20295;-64
2021/11/21 11:42:37;;;;;;;37.00;16.02;;;9.30;99.90;;;;;;5055333;28;20492;-64
2021/11/21 11:45:03;;;;;;;35.92;15.48;;;9.30;99.90;;;;;;5056067;28;20907;-63
2021/11/21 11:47:29;;;;;;;31.63;15.50;;;9.40;99.90;;;;;;5056992;28;20296;-68
2021/11/21 11:49:55;;;;;;;34.78;15.65;;;9.50;99.90;;;;;;5056255;28;20351;-64
2021/11/21 11:52:21;;;;;;;34.05;14.90;;;9.50;99.90;;;;;;5057307;28;20886;-65
2021/11/21 11:54:46;;;;;;;28.70;14.48;;;9.50;99.90;;;;;;5057056;28;20035;-65
2021/11/21 11:57:14;;;;;;;28.77;13.95;;;9.60;99.90;;;;;;5056725;28;20020;-65
2021/11/21 11:59:41;;;;;;;30.35;14.27;;;9.60;99.90;;;;;;5057013;28;20032;-64
2021/11/21 12:02:07;;;;;;;31.10;15.68;;;9.50;99.90;;;;;;5056728;28;20032;-64
2021/11/21 12:04:32;;;;;;;31.02;14.57;;;9.50;99.90;;;;;;5056367;28;20025;-64
2021/11/21 12:06:58;;;;;;;31.50;15.13;;;9.50;99.90;;;;;;5056530;28;20038;-64
2021/11/21 12:09:25;;;;;;;34.78;17.48;;;9.50;99.90;;;;;;5055063;28;20044;-64
2021/11/21 12:11:55;;;;;;;37.13;15.77;;;9.40;99.90;;;;;;5056406;28;20039;-65
2021/11/21 12:14:21;;;;;;;35.50;15.98;;;9.40;99.90;;;;;;5056149;28;20021;-65
2021/11/21 12:16:46;;;;;;;39.47;17.15;;;9.40;99.90;;;;;;5055879;28;20082;-66
2021/11/21 12:19:12;;;;;;;41.63;17.67;;;9.30;99.90;;;;;;5055620;28;20028;-64
2021/11/21 12:21:37;;;;;;;41.65;17.92;;;9.30;99.90;;;;;;5052205;28;20093;-64
2021/11/21 12:24:04;;;;;;;39.20;17.30;;;10.90;99.90;;;;;;5057549;28;20040;-64
2021/11/21 12:26:30;;;;;;;34.10;15.52;;;9.30;99.90;;;;;;5057682;28;20082;-64
2021/11/21 12:28:56;;;;;;;41.13;17.92;;;9.30;99.90;;;;;;5056786;28;20163;-64
2021/11/21 12:31:21;;;;;;;35.65;15.98;;;9.30;99.90;;;;;;5059574;28;20556;-64